Time;durP1;ratioP1;P1;durP2;ratioP2;P2;SDS_P1;SDS_P2;PMS_P1;PMS_P2;Temp;Humidity;BMP_temperature;BMP_pressure;BME280_temperature;BME280_humidity;BME280_pressure;Samples;Min_cycle;Max_cycle;Signal;HPM_P1;HPM_P2
2021/05/11 00:02:13;;;;;;;3.03;2.45;;;;;;;16.96;97.84;100462.53;5005067;28;20487;-77
2021/05/11 00:04:38;;;;;;;4.72;2.53;;;;;;;17.09;99.31;100466.31;5003069;28;20038;-77
2021/05/11 00:07:04;;;;;;;5.35;2.53;;;;;;;16.91;100.00;100464.94;5010874;28;20124;-77
2021/05/11 00:09:29;;;;;;;4.70;2.47;;;;;;;16.99;99.28;100471.88;5001574;28;20376;-77
2021/05/11 00:11:55;;;;;;;4.68;2.03;;;;;;;16.91;99.06;100471.16;5004089;28;20060;-76
2021/05/11 00:14:21;;;;;;;6.82;3.00;;;;;;;16.74;100.00;100474.00;5006806;28;20034;-77
2021/05/11 00:16:46;;;;;;;4.72;2.00;;;;;;;16.82;100.00;100462.66;5007790;28;20038;-77
2021/05/11 00:19:14;;;;;;;4.65;2.00;;;;;;;16.91;99.40;100464.94;5005093;28;20164;-77
2021/05/11 00:21:39;;;;;;;4.55;1.90;;;;;;;17.03;97.57;100461.72;5055888;22;20056;-77
2021/05/11 00:24:05;;;;;;;5.40;1.83;;;;;;;17.03;96.20;100459.00;5061591;28;20076;-77
2021/05/11 00:26:32;;;;;;;4.88;1.52;;;;;;;16.96;96.87;100448.16;5064791;28;20094;-76
2021/05/11 00:28:58;;;;;;;3.03;1.90;;;;;;;16.87;97.88;100456.03;5051564;28;20461;-77
2021/05/11 00:31:23;;;;;;;2.13;1.90;;;;;;;16.88;97.47;100444.72;5050749;28;20036;-77
2021/05/11 00:33:49;;;;;;;3.42;1.40;;;;;;;16.92;97.17;100445.47;5041200;28;20050;-77
2021/05/11 00:36:15;;;;;;;3.35;1.42;;;;;;;16.78;96.84;100445.59;5062178;28;20055;-78
2021/05/11 00:38:40;;;;;;;2.42;1.58;;;;;;;16.86;96.99;100438.91;5042832;28;20120;-77
2021/05/11 00:41:06;;;;;;;1.98;1.50;;;;;;;16.81;97.17;100441.31;5022106;28;20045;-77
2021/05/11 00:43:31;;;;;;;3.47;1.88;;;;;;;16.69;98.61;100420.81;5046548;28;20104;-77
2021/05/11 00:45:59;;;;;;;3.17;1.60;;;;;;;16.67;98.63;100411.50;5047528;28;20036;-77
2021/05/11 00:48:24;;;;;;;4.32;1.58;;;;;;;16.47;99.75;100434.94;5025619;28;20032;-77
2021/05/11 00:50:50;;;;;;;2.88;1.90;;;;;;;16.40;100.00;100464.88;5045594;28;20851;-77
2021/05/11 00:53:15;;;;;;;4.93;2.08;;;;;;;16.19;100.00;100463.88;5036668;28;20036;-77
2021/05/11 00:55:41;;;;;;;3.38;1.60;;;;;;;16.10;100.00;100428.19;5047549;28;20041;-77
2021/05/11 00:58:09;;;;;;;6.07;2.13;;;;;;;16.43;100.00;100409.75;5053935;28;20120;-77
2021/05/11 01:00:34;;;;;;;3.03;1.58;;;;;;;16.26;100.00;100414.91;5050440;28;20044;-76
2021/05/11 01:03:00;;;;;;;2.53;1.85;;;;;;;16.25;100.00;100423.44;5031684;28;20041;-77
2021/05/11 01:05:26;;;;;;;6.75;2.30;;;;;;;16.45;100.00;100445.44;5037592;28;20033;-77
2021/05/11 01:07:51;;;;;;;4.53;1.90;;;;;;;16.39;99.72;100450.53;5049472;28;20029;-77
2021/05/11 01:10:17;;;;;;;3.28;1.60;;;;;;;16.14;100.00;100456.13;5044534;28;20039;-77
2021/05/11 01:12:42;;;;;;;2.70;1.38;;;;;;;16.15;100.00;100454.97;5054956;28;20091;-77
2021/05/11 01:15:08;;;;;;;2.90;1.60;;;;;;;16.23;100.00;100434.72;5047944;28;20393;-76
2021/05/11 01:17:36;;;;;;;3.03;1.67;;;;;;;16.47;99.50;100407.78;5056049;28;20094;-76
2021/05/11 01:20:05;;;;;;;5.70;1.85;;;;;;;16.50;97.93;100426.81;5049716;28;20061;-76
2021/05/11 02:18:02;;;;;;;5.40;1.80;;;;;;;15.74;100.00;100458.63;5042807;28;20076;-76
2021/05/11 02:24:35;;;;;;;3.55;1.90;;;;;;;16.06;100.00;100391.34;5046146;28;20088;-76
2021/05/11 02:27:01;;;;;;;3.95;1.73;;;;;;;16.04;100.00;100352.94;5039115;28;20052;-76
2021/05/11 02:29:26;;;;;;;2.67;1.38;;;;;;;15.96;100.00;100351.44;5044059;28;20112;-77
2021/05/11 02:31:52;;;;;;;5.53;2.10;;;;;;;15.88;100.00;100369.72;5050110;28;20079;-76
2021/05/11 02:34:17;;;;;;;4.88;1.70;;;;;;;15.55;100.00;100392.00;5039043;28;20033;-76
2021/05/11 02:36:43;;;;;;;4.60;1.98;;;;;;;15.62;100.00;100402.81;5045497;28;20381;-77
2021/05/11 02:39:08;;;;;;;5.57;1.73;;;;;;;15.58;100.00;100393.91;5039887;28;20060;-77
2021/05/11 02:41:33;;;;;;;5.25;1.60;;;;;;;15.27;100.00;100397.53;5050097;28;20410;-76
2021/05/11 02:43:59;;;;;;;5.60;1.80;;;;;;;15.68;100.00;100397.78;5047296;28;20041;-77
2021/05/11 02:46:24;;;;;;;6.25;2.00;;;;;;;15.46;100.00;100378.09;5038160;28;20060;-77
2021/05/11 02:48:50;;;;;;;4.20;1.80;;;;;;;15.64;100.00;100361.72;5050499;28;20048;-76
2021/05/11 02:51:15;;;;;;;4.57;1.73;;;;;;;15.39;100.00;100359.84;5038329;28;20039;-77
2021/05/11 02:53:41;;;;;;;3.53;1.75;;;;;;;15.34;100.00;100354.06;5041431;28;20535;-77
2021/05/11 02:56:06;;;;;;;5.82;1.88;;;;;;;15.47;100.00;100347.06;5050060;28;20497;-76
2021/05/11 02:58:34;;;;;;;3.42;1.95;;;;;;;15.27;100.00;100351.41;5045751;28;20041;-77
2021/05/11 03:01:00;;;;;;;5.53;1.92;;;;;;;15.45;100.00;100360.25;5052534;28;20536;-77
2021/05/11 03:03:25;;;;;;;5.30;2.00;;;;;;;15.42;100.00;100355.63;5056324;28;20029;-76
2021/05/11 03:05:51;;;;;;;6.28;2.40;;;;;;;15.55;100.00;100369.50;5057052;28;20037;-77
2021/05/11 03:08:17;;;;;;;4.28;2.10;;;;;;;15.56;100.00;100350.13;5021811;28;20121;-77
2021/05/11 03:10:43;;;;;;;6.35;2.30;;;;;;;15.62;100.00;100343.09;5052198;28;20104;-76
2021/05/11 03:13:08;;;;;;;4.00;2.40;;;;;;;15.46;100.00;100315.66;5053979;28;20563;-76
2021/05/11 03:15:34;;;;;;;9.93;2.55;;;;;;;15.52;100.00;100319.53;5047851;28;20417;-76
2021/05/11 03:17:59;;;;;;;4.50;2.40;;;;;;;15.61;100.00;100319.84;5053687;28;20130;-77
2021/05/11 03:20:25;;;;;;;5.25;2.70;;;;;;;15.53;100.00;100328.41;5053011;28;20505;-77
2021/05/11 03:22:50;;;;;;;4.65;2.83;;;;;;;15.49;100.00;100330.38;5059252;28;20098;-77
2021/05/11 03:25:16;;;;;;;7.05;2.83;;;;;;;15.56;100.00;100358.28;5057616;28;20025;-77
2021/05/11 03:27:41;;;;;;;6.22;2.90;;;;;;;15.39;100.00;100389.72;5052419;28;20043;-77
2021/05/11 03:30:07;;;;;;;3.47;2.53;;;;;;;15.29;100.00;100419.59;5066573;28;20079;-76
2021/05/11 03:32:33;;;;;;;4.63;2.50;;;;;;;15.31;100.00;100441.69;5051234;28;20501;-77
2021/05/11 03:34:58;;;;;;;7.25;2.53;;;;;;;15.39;100.00;100440.50;5055087;28;20063;-76
2021/05/11 03:37:24;;;;;;;6.43;2.65;;;;;;;15.39;100.00;100426.94;5053018;28;20037;-77
2021/05/11 03:39:49;;;;;;;6.82;2.88;;;;;;;15.26;100.00;100420.38;5054965;28;20032;-76
2021/05/11 03:42:19;;;;;;;6.00;2.70;;;;;;;15.10;100.00;100436.28;5054673;28;20052;-76
2021/05/11 03:44:48;;;;;;;5.40;3.17;;;;;;;15.05;100.00;100425.84;5056734;28;20072;-75
2021/05/11 03:47:17;;;;;;;7.80;2.60;;;;;;;15.15;100.00;100385.16;5036756;28;20561;-76
2021/05/11 03:49:42;;;;;;;4.68;2.90;;;;;;;15.23;100.00;100358.78;5046413;28;20068;-77
2021/05/11 03:52:08;;;;;;;4.60;2.75;;;;;;;15.19;100.00;100358.00;5059303;28;20075;-76
2021/05/11 03:54:35;;;;;;;7.43;3.20;;;;;;;15.29;100.00;100357.22;5052692;28;20037;-77
2021/05/11 03:57:00;;;;;;;5.88;3.10;;;;;;;15.12;100.00;100355.31;5046490;28;20037;-76
2021/05/11 03:59:26;;;;;;;6.10;3.22;;;;;;;15.18;100.00;100349.09;5045138;28;20032;-76
2021/05/11 04:01:51;;;;;;;5.95;3.13;;;;;;;15.03;100.00;100352.22;5043002;28;20056;-76
2021/05/11 04:04:19;;;;;;;8.40;3.38;;;;;;;14.92;100.00;100354.22;5051890;28;20057;-76
2021/05/11 04:06:45;;;;;;;7.78;3.10;;;;;;;14.80;100.00;100368.94;5052462;28;20045;-77
2021/05/11 04:09:25;;;;;;;6.32;2.80;;;;;;;14.99;100.00;100381.31;5051749;28;20111;-77
2021/05/11 04:17:08;;;;;;;5.07;2.08;;;;;;;15.08;100.00;100400.66;5053535;28;20044;-77
2021/05/11 04:19:35;;;;;;;6.75;1.65;;;;;;;14.83;100.00;100399.91;5022733;28;20408;-77
2021/05/11 04:22:00;;;;;;;5.50;2.03;;;;;;;14.73;100.00;100403.44;5032139;28;20033;-77
2021/05/11 04:24:28;;;;;;;8.23;2.05;;;;;;;14.43;100.00;100385.63;5049399;28;20044;-77
2021/05/11 04:26:53;;;;;;;3.90;1.65;;;;;;;14.41;100.00;100398.78;5040192;28;20037;-76
2021/05/11 04:29:19;;;;;;;3.60;1.52;;;;;;;14.36;100.00;100393.72;5022392;28;20029;-76
2021/05/11 04:31:44;;;;;;;4.32;1.70;;;;;;;14.61;100.00;100393.75;5049756;28;20055;-76
2021/05/11 04:34:10;;;;;;;3.38;1.50;;;;;;;14.72;100.00;100397.22;5052620;28;20501;-76
2021/05/11 04:36:35;;;;;;;5.47;1.50;;;;;;;14.76;100.00;100380.94;5031898;28;20441;-76
2021/05/11 04:39:01;;;;;;;4.18;1.60;;;;;;;14.98;100.00;100380.53;5047825;28;20037;-76
2021/05/11 04:41:26;;;;;;;7.47;1.40;;;;;;;14.95;100.00;100388.66;5050256;28;20110;-76
2021/05/11 04:43:52;;;;;;;5.30;1.42;;;;;;;14.85;100.00;100392.16;5049924;28;20531;-76
2021/05/11 04:48:46;;;;;;;3.72;1.50;;;;;;;14.76;100.00;100403.44;5037957;28;20512;-77
2021/05/11 04:51:13;;;;;;;3.88;1.35;;;;;;;14.58;100.00;100405.34;5045267;28;20112;-76
2021/05/11 04:53:38;;;;;;;4.45;1.50;;;;;;;14.57;100.00;100400.34;5049699;28;20043;-76
2021/05/11 04:56:04;;;;;;;6.28;1.40;;;;;;;14.60;100.00;100407.66;5045834;28;20112;-76
2021/05/11 04:58:30;;;;;;;3.22;1.48;;;;;;;14.41;100.00;100415.03;5047692;28;20068;-77
2021/05/11 05:01:01;;;;;;;7.97;1.73;;;;;;;14.53;100.00;100422.03;5009057;28;20034;-76
2021/05/11 05:03:27;;;;;;;;;;;;;;;14.30;100.00;100427.78;5050590;28;20097;-76
2021/05/11 05:05:53;;;;;;;4.30;1.40;;;;;;;14.28;100.00;100424.72;5030172;28;19916;-76
2021/05/11 05:08:18;;;;;;;3.75;1.30;;;;;;;14.37;100.00;100421.59;5051499;28;20121;-76
2021/05/11 05:10:44;;;;;;;1.92;1.38;;;;;;;14.43;100.00;100420.06;5050088;28;20040;-77
2021/05/11 05:13:23;;;;;;;3.78;1.20;;;;;;;14.57;100.00;100424.72;5049157;28;20113;-76
2021/05/11 05:15:53;;;;;;;3.83;1.40;;;;;;;14.45;100.00;100432.09;5024484;28;20033;-75
2021/05/11 05:18:19;;;;;;;3.97;1.60;;;;;;;14.41;100.00;100427.81;5047269;28;20045;-75
2021/05/11 05:20:47;;;;;;;2.95;1.80;;;;;;;14.13;100.00;100430.47;5050606;28;20041;-75
2021/05/11 05:23:14;;;;;;;2.55;1.45;;;;;;;14.20;100.00;100428.53;5050259;28;20037;-76
2021/05/11 05:25:40;;;;;;;3.95;1.40;;;;;;;14.32;100.00;100422.75;5036214;28;20111;-75
2021/05/11 05:28:08;;;;;;;3.40;1.80;;;;;;;14.19;100.00;100423.47;5046422;28;20515;-75
2021/05/11 05:30:34;;;;;;;5.85;1.70;;;;;;;14.34;100.00;100433.97;5042064;28;20075;-75
2021/05/11 05:33:02;;;;;;;5.47;1.73;;;;;;;14.33;100.00;100427.03;5036157;28;20529;-75
2021/05/11 05:35:31;;;;;;;5.50;1.77;;;;;;;14.17;100.00;100434.69;5033946;28;20030;-76
2021/05/11 05:37:57;;;;;;;4.13;1.58;;;;;;;14.31;100.00;100429.34;5030456;28;20037;-76
2021/05/11 05:40:23;;;;;;;6.47;1.60;;;;;;;14.14;100.00;100421.16;5047355;28;20036;-75
2021/05/11 05:42:49;;;;;;;5.40;1.60;;;;;;;14.32;100.00;100427.41;5041136;28;20715;-75
2021/05/11 05:45:15;;;;;;;4.97;1.65;;;;;;;14.48;100.00;100438.66;5041927;28;20038;-75
2021/05/11 05:47:50;;;;;;;3.95;1.77;;;;;;;14.68;100.00;100439.03;5022754;28;20037;-76
2021/05/11 05:50:24;;;;;;;4.55;1.95;;;;;;;14.86;100.00;100443.31;5041020;28;20032;-75
2021/05/11 05:52:54;;;;;;;6.90;1.95;;;;;;;14.74;100.00;100446.41;5048601;28;20517;-76
2021/05/11 05:55:19;;;;;;;6.10;1.92;;;;;;;14.73;100.00;100438.69;5051361;28;20090;-75
2021/05/11 05:57:44;;;;;;;8.35;2.65;;;;;;;14.77;100.00;100415.06;5044402;28;20025;-74
2021/05/11 06:00:13;;;;;;;6.00;2.08;;;;;;;14.83;100.00;100408.03;5036623;28;20650;-74
2021/05/11 06:02:44;;;;;;;7.60;2.20;;;;;;;14.87;100.00;100406.09;5022885;28;20040;-74
2021/05/11 06:05:10;;;;;;;8.20;2.25;;;;;;;14.76;100.00;100399.94;5048882;28;20134;-74
2021/05/11 06:07:36;;;;;;;8.25;2.10;;;;;;;14.67;100.00;100391.44;5041362;28;20585;-73
2021/05/11 06:10:28;;;;;;;10.00;2.60;;;;;;;14.77;100.00;100388.69;5044764;28;20020;-75
2021/05/11 06:12:58;;;;;;;7.53;2.60;;;;;;;14.99;100.00;100401.06;4959649;28;20125;-74
2021/05/11 06:18:10;;;;;;;4.85;1.92;;;;;;;14.77;100.00;100402.25;4961450;28;20464;-74
2021/05/11 06:20:36;;;;;;;6.85;2.30;;;;;;;14.60;100.00;100388.69;4990882;22;20080;-75
2021/05/11 06:23:01;;;;;;;6.75;2.28;;;;;;;14.52;100.00;100382.50;5035990;28;20065;-75
2021/05/11 06:25:26;;;;;;;7.43;2.65;;;;;;;14.53;100.00;100377.88;5040404;28;20036;-76
2021/05/11 06:27:56;;;;;;;8.07;2.72;;;;;;;14.78;100.00;100368.56;5041765;28;20481;-76
2021/05/11 06:30:22;;;;;;;6.05;2.72;;;;;;;14.72;100.00;100372.06;5033295;28;20579;-75
2021/05/11 06:32:48;;;;;;;8.10;2.88;;;;;;;14.76;100.00;100367.41;5044161;28;20025;-77
2021/05/11 06:35:13;;;;;;;10.10;3.00;;;;;;;14.89;100.00;100387.50;5028719;28;20046;-77
2021/05/11 06:37:39;;;;;;;6.53;2.83;;;;;;;14.82;100.00;100395.66;5019049;28;20045;-77
2021/05/11 06:40:05;;;;;;;12.93;3.10;;;;;;;14.76;100.00;100386.38;5021183;28;20038;-79
2021/05/11 06:42:31;;;;;;;8.75;2.78;;;;;;;14.77;100.00;100382.50;5019269;28;20049;-78
2021/05/11 06:45:06;;;;;;;7.55;3.25;;;;;;;14.82;100.00;100369.34;5023337;28;20474;-77
2021/05/11 06:47:54;;;;;;;8.25;3.40;;;;;;;14.63;100.00;100360.84;5022191;28;20034;-76
2021/05/11 06:55:50;;;;;;;7.40;3.05;;;;;;;14.95;100.00;100365.03;5019160;28;20041;-78
2021/05/11 06:58:16;;;;;;;7.85;3.03;;;;;;;14.83;100.00;100367.38;5028687;28;20036;-79
2021/05/11 07:01:02;;;;;;;6.47;2.83;;;;;;;14.89;100.00;100382.88;5025059;28;20123;-79
2021/05/11 07:03:28;;;;;;;4.10;2.60;;;;;;;14.74;100.00;100386.78;4948205;28;20071;-80
2021/05/11 07:05:54;;;;;;;5.85;2.72;;;;;;;14.62;100.00;100376.31;4963287;28;20179;-76
2021/05/11 07:11:30;;;;;;;5.28;2.47;;;;;;;14.35;100.00;100365.09;4946199;28;20035;-79
2021/05/11 07:13:54;;;;;;;6.78;2.20;;;;;;;14.39;100.00;100367.81;4960823;28;20455;-78
2021/05/11 07:16:19;;;;;;;5.25;1.98;;;;;;;14.49;100.00;100369.75;4960184;28;20042;-78
2021/05/11 07:18:45;;;;;;;5.95;2.30;;;;;;;14.73;100.00;100371.66;4948881;28;20066;-78
2021/05/11 07:21:10;;;;;;;4.40;2.15;;;;;;;14.79;100.00;100361.97;4960923;28;20043;-78
2021/05/11 07:23:36;;;;;;;8.38;1.98;;;;;;;14.84;100.00;100356.16;4964072;28;20046;-78
2021/05/11 07:31:31;;;;;;;2.78;2.08;;;;;;;14.80;100.00;100341.06;4967527;28;20038;-78
2021/05/11 07:33:57;;;;;;;6.93;2.22;;;;;;;14.65;100.00;100336.84;4963753;28;20435;-78
2021/05/11 07:36:23;;;;;;;6.22;2.08;;;;;;;14.86;100.00;100323.22;4967361;28;20117;-78
2021/05/11 07:38:50;;;;;;;5.20;1.88;;;;;;;14.82;100.00;100333.31;4968969;28;20023;-77
2021/05/11 07:41:17;;;;;;;4.40;1.40;;;;;;;14.85;100.00;100327.88;5004574;28;20699;-77
2021/05/11 07:43:45;;;;;;;7.60;1.90;;;;;;;14.66;100.00;100324.81;5024489;28;20030;-76
2021/05/11 08:15:47;;;;;;;6.97;1.40;;;;;;;14.67;100.00;100353.47;5016030;28;20045;-78
2021/05/11 08:28:46;;;;;;;4.00;1.08;;;;;;;14.95;100.00;100337.94;5025369;28;20021;-78
2021/05/11 08:31:13;;;;;;;6.13;1.60;;;;;;;15.02;99.75;100320.88;5026017;28;20040;-78
2021/05/11 08:33:38;;;;;;;4.03;1.27;;;;;;;15.20;99.15;100313.44;5023564;28;20088;-80
2021/05/11 08:36:04;;;;;;;6.80;1.67;;;;;;;15.17;100.00;100300.66;5016172;28;20041;-79
2021/05/11 08:38:30;;;;;;;8.30;1.38;;;;;;;15.38;100.00;100295.13;5033153;28;20033;-79
2021/05/11 08:40:56;;;;;;;2.80;1.25;;;;;;;15.56;99.54;100295.84;5026186;28;20167;-79
2021/05/11 08:43:31;;;;;;;1.92;1.27;;;;;;;15.80;99.07;100288.69;5019094;28;20031;-80
2021/05/11 08:45:59;;;;;;;3.97;1.17;;;;;;;15.91;98.27;100281.25;5020211;28;20378;-79
2021/05/11 08:48:25;;;;;;;6.88;1.58;;;;;;;15.91;97.88;100275.81;5025069;28;20033;-78
2021/05/11 08:50:59;;;;;;;3.13;1.23;;;;;;;16.02;96.58;100276.50;5021617;28;20581;-78
2021/05/11 09:26:40;;;;;;;3.88;1.17;;;;;;;16.10;95.28;100224.41;5020243;28;20025;-82
2021/05/11 09:29:42;;;;;;;3.85;1.17;;;;;;;16.26;94.10;100219.22;5018505;28;20025;-79
2021/05/11 09:54:42;;;;;;;2.65;1.10;;;;;;;16.38;94.56;100193.47;5024667;28;20025;-80
2021/05/11 09:57:26;;;;;;;3.42;1.33;;;;;;;16.38;94.48;100193.47;5016699;28;20073;-78
2021/05/11 10:00:46;;;;;;;8.43;1.60;;;;;;;16.34;94.76;100202.88;5018959;28;20022;-79
2021/05/11 10:32:19;;;;;;;2.30;1.00;;;;;;;17.31;88.15;100114.94;5014481;28;20124;-79
2021/05/11 10:48:33;;;;;;;5.65;1.00;;;;;;;17.59;84.65;100177.94;5015920;28;20449;-78
2021/05/11 10:50:58;;;;;;;4.10;1.13;;;;;;;17.52;84.55;100194.34;5016885;28;20057;-78
2021/05/11 10:53:37;;;;;;;1.20;0.77;;;;;;;17.51;85.23;100225.50;5023307;28;20038;-77
2021/05/11 10:56:30;;;;;;;3.47;0.90;;;;;;;17.32;86.24;100231.59;5012226;28;20033;-78
2021/05/11 10:59:10;;;;;;;3.25;1.02;;;;;;;17.38;87.04;100227.22;5017588;28;20123;-78
2021/05/11 11:01:36;;;;;;;3.75;0.90;;;;;;;17.42;85.52;100222.47;5020505;28;20049;-78
2021/05/11 11:04:22;;;;;;;1.85;0.80;;;;;;;17.60;84.26;100231.19;5020861;28;20806;-78
2021/05/11 11:06:59;;;;;;;3.75;1.02;;;;;;;17.64;84.40;100239.31;5021166;28;20025;-78
2021/05/11 11:09:30;;;;;;;2.53;0.75;;;;;;;17.85;84.82;100242.47;5015959;28;20034;-78
2021/05/11 11:11:57;;;;;;;2.60;0.85;;;;;;;18.23;85.36;100239.53;5011104;28;20041;-78
2021/05/11 11:14:22;;;;;;;3.88;0.90;;;;;;;18.51;84.28;100236.28;5037254;28;20034;-78
2021/05/11 11:16:58;;;;;;;1.40;0.70;;;;;;;18.82;83.05;100238.41;5018791;28;20036;-77
2021/05/11 11:19:24;;;;;;;3.53;0.80;;;;;;;18.92;82.24;100231.19;5014739;28;20049;-78
2021/05/11 11:24:33;;;;;;;2.53;0.73;;;;;;;19.09;78.93;100212.91;5014162;28;20053;-78
2021/05/11 11:26:59;;;;;;;1.40;0.70;;;;;;;19.28;78.61;100215.59;5021397;28;20040;-79
2021/05/11 11:29:26;;;;;;;2.83;0.70;;;;;;;19.23;79.19;100224.28;5018627;28;20030;-78
2021/05/11 11:31:53;;;;;;;4.30;0.70;;;;;;;19.29;79.97;100216.34;5018678;28;20029;-79
2021/05/11 11:34:36;;;;;;;3.47;1.10;;;;;;;19.42;77.96;100209.06;5014982;28;20095;-77
2021/05/11 11:37:11;;;;;;;4.43;0.90;;;;;;;19.42;77.40;100211.78;5022793;28;20030;-78
2021/05/11 11:39:44;;;;;;;2.90;0.85;;;;;;;19.57;76.54;100207.53;5023963;28;20130;-77
2021/05/11 11:42:40;;;;;;;3.42;0.65;;;;;;;19.58;74.60;100209.84;5025919;28;20048;-78
2021/05/11 11:45:21;;;;;;;4.50;0.73;;;;;;;19.52;74.80;100210.78;5021845;28;20494;-77
2021/05/11 11:48:03;;;;;;;2.70;0.90;;;;;;;19.33;74.95;100217.84;5018747;28;20087;-77
2021/05/11 11:50:34;;;;;;;4.10;0.90;;;;;;;19.30;76.39;100228.84;5016950;28;20044;-78
2021/05/11 11:53:06;;;;;;;4.05;1.08;;;;;;;19.10;77.39;100220.69;5022408;28;20041;-76
2021/05/11 11:57:57;;;;;;;1.63;0.70;;;;;;;19.13;75.40;100214.38;5020203;28;20494;-75
2021/05/11 12:00:35;;;;;;;4.75;0.77;;;;;;;18.89;76.21;100219.16;5018412;28;20026;-75
2021/05/11 12:03:02;;;;;;;2.47;0.90;;;;;;;18.73;77.25;100215.59;5020268;28;20037;-75
2021/05/11 12:05:31;;;;;;;1.75;0.93;;;;;;;18.74;77.69;100211.66;5024779;28;20549;-75
2021/05/11 12:08:08;;;;;;;2.15;0.70;;;;;;;18.60;78.75;100209.25;5022782;28;20039;-78
2021/05/11 12:10:38;;;;;;;4.97;0.90;;;;;;;18.47;80.51;100200.91;5028800;28;20033;-75
2021/05/11 12:13:07;;;;;;;4.53;0.90;;;;;;;18.39;81.18;100204.91;5016611;28;20127;-75
2021/05/11 12:15:33;;;;;;;2.42;1.00;;;;;;;18.47;81.33;100200.91;5019742;28;20029;-76
2021/05/11 12:18:01;;;;;;;2.03;1.15;;;;;;;18.72;81.19;100205.88;5024974;28;20556;-76
2021/05/11 12:20:27;;;;;;;4.30;1.05;;;;;;;18.81;80.83;100203.38;5025125;28;20401;-75
2021/05/11 12:23:17;;;;;;;3.13;0.88;;;;;;;18.87;80.23;100188.03;5024762;28;20390;-75
2021/05/11 12:25:53;;;;;;;3.20;0.90;;;;;;;18.96;80.62;100180.03;5018377;28;20549;-74
2021/05/11 12:28:39;;;;;;;3.38;1.00;;;;;;;19.10;80.02;100163.34;5025666;28;20037;-74
2021/05/11 12:31:10;;;;;;;2.50;0.85;;;;;;;19.23;77.19;100156.03;5020448;28;20400;-75
2021/05/11 12:33:43;;;;;;;1.30;0.80;;;;;;;19.27;77.56;100159.44;5022157;28;20109;-74
2021/05/11 12:36:24;;;;;;;4.60;1.20;;;;;;;19.04;77.51;100165.03;5018122;28;20060;-74
2021/05/11 12:39:33;;;;;;;2.88;1.00;;;;;;;19.07;78.01;100168.88;5021997;28;20025;-74
2021/05/11 12:42:13;;;;;;;2.20;1.00;;;;;;;18.97;78.56;100164.44;5023231;28;20133;-75
2021/05/11 12:44:39;;;;;;;3.70;1.10;;;;;;;18.97;78.22;100178.09;5018590;28;20030;-75
2021/05/11 12:47:06;;;;;;;2.88;1.08;;;;;;;18.86;79.28;100181.81;5026830;28;20029;-74
2021/05/11 12:49:32;;;;;;;2.67;0.70;;;;;;;18.91;80.20;100172.34;5024345;28;20026;-75
2021/05/11 12:51:59;;;;;;;2.58;1.05;;;;;;;18.97;78.78;100167.16;5020540;28;20041;-76
2021/05/11 12:54:46;;;;;;;2.10;0.80;;;;;;;19.01;79.44;100159.66;5022636;28;20037;-75
2021/05/11 12:59:53;;;;;;;1.88;0.88;;;;;;;19.23;80.01;100153.28;5019759;28;20116;-78
2021/05/11 13:03:01;;;;;;;1.75;0.73;;;;;;;19.21;78.47;100146.72;5014794;28;20409;-75
2021/05/11 13:16:35;;;;;;;1.95;0.82;;;;;;;19.36;74.45;100118.66;5012113;28;20048;-76
2021/05/11 13:22:16;;;;;;;2.95;0.70;;;;;;;19.27;74.55;100120.44;5015366;28;20524;-74
2021/05/11 13:27:29;;;;;;;3.63;1.00;;;;;;;19.28;76.22;100120.00;5019776;28;20052;-73
2021/05/11 13:35:05;;;;;;;4.13;1.25;;;;;;;19.20;76.22;100115.91;5015829;28;20037;-71
2021/05/11 13:37:30;;;;;;;2.22;1.08;;;;;;;19.12;76.67;100128.19;5014204;28;20044;-72
2021/05/11 13:39:58;;;;;;;3.22;1.00;;;;;;;18.93;78.75;100127.06;5015848;28;20405;-72
2021/05/11 13:42:24;;;;;;;4.15;0.90;;;;;;;18.90;80.18;100138.81;5012711;28;20490;-75
2021/05/11 13:44:53;;;;;;;2.42;1.02;;;;;;;18.85;79.24;100141.28;5018117;28;20034;-72
2021/05/11 13:47:18;;;;;;;3.55;1.02;;;;;;;18.72;79.61;100148.56;5031899;28;20064;-72
2021/05/11 13:49:44;;;;;;;2.15;1.27;;;;;;;18.81;81.05;100154.25;5015096;28;20026;-72
2021/05/11 13:52:09;;;;;;;3.42;0.88;;;;;;;18.60;81.67;100151.97;5016050;28;20033;-71
2021/05/11 13:54:35;;;;;;;1.40;0.90;;;;;;;18.78;82.39;100166.75;5015715;28;20040;-76
2021/05/11 14:02:48;;;;;;;2.92;1.38;;;;;;;18.91;80.53;100158.72;5012556;28;20211;-78
2021/05/11 14:05:14;;;;;;;1.92;1.00;;;;;;;18.78;80.13;100158.56;5020438;28;20041;-76
2021/05/11 14:07:39;;;;;;;1.88;1.00;;;;;;;18.72;80.16;100167.66;5021089;28;20460;-74
2021/05/11 14:10:06;;;;;;;1.92;1.05;;;;;;;18.65;82.63;100179.50;5017040;28;20397;-74
2021/05/11 14:12:32;;;;;;;3.75;1.25;;;;;;;18.85;81.25;100184.97;5016641;28;20026;-75
2021/05/11 14:14:57;;;;;;;2.88;1.30;;;;;;;18.81;82.09;100171.38;5014400;28;20049;-74
2021/05/11 14:17:23;;;;;;;2.70;1.20;;;;;;;18.84;81.89;100172.50;5014715;28;20056;-74
2021/05/11 14:19:50;;;;;;;3.47;1.20;;;;;;;18.73;82.08;100178.19;5018759;28;20038;-73
2021/05/11 14:22:16;;;;;;;4.07;1.08;;;;;;;18.78;82.12;100174.16;5007453;28;21138;-75
2021/05/11 14:24:41;;;;;;;3.13;1.30;;;;;;;18.61;82.69;100180.75;5020284;28;20100;-75
2021/05/11 14:27:08;;;;;;;4.03;1.40;;;;;;;18.53;83.19;100173.91;5014212;28;20037;-74
2021/05/11 14:29:34;;;;;;;2.15;1.00;;;;;;;18.54;84.75;100170.75;5016448;28;20076;-75
2021/05/11 14:31:59;;;;;;;5.20;1.20;;;;;;;18.63;83.64;100170.97;5019137;28;20061;-74
2021/05/11 14:34:25;;;;;;;4.25;1.35;;;;;;;18.53;83.89;100171.19;5019163;28;20067;-75
2021/05/11 14:36:51;;;;;;;4.45;1.50;;;;;;;18.78;83.43;100182.34;5017508;28;20121;-74
2021/05/11 14:39:17;;;;;;;2.92;1.10;;;;;;;18.54;83.10;100181.66;5017557;28;20418;-74
2021/05/11 14:41:43;;;;;;;4.90;1.30;;;;;;;18.55;84.07;100188.69;5017263;28;20083;-73
2021/05/11 14:44:09;;;;;;;4.65;1.27;;;;;;;18.61;83.67;100187.00;5014782;28;20052;-76
2021/05/11 14:46:35;;;;;;;4.03;1.52;;;;;;;18.58;83.46;100181.63;5015674;28;20072;-74
2021/05/11 14:49:01;;;;;;;3.88;1.30;;;;;;;18.35;84.41;100179.69;5017438;28;20044;-72
2021/05/11 14:51:27;;;;;;;4.38;1.38;;;;;;;18.52;84.79;100173.16;5021851;28;20032;-71
2021/05/11 14:53:52;;;;;;;3.25;1.52;;;;;;;18.59;84.94;100180.41;5021240;28;20038;-72
2021/05/11 14:56:18;;;;;;;3.42;1.58;;;;;;;18.72;85.05;100184.81;5016725;28;20088;-71
2021/05/11 14:58:44;;;;;;;3.10;1.50;;;;;;;18.83;84.24;100176.41;5015320;28;20045;-71
2021/05/11 15:01:10;;;;;;;4.22;1.65;;;;;;;18.85;83.99;100187.69;5008254;28;20394;-71
2021/05/11 15:03:36;;;;;;;3.08;1.40;;;;;;;18.86;83.21;100191.94;5018699;28;20050;-78
2021/05/11 15:06:02;;;;;;;4.35;1.27;;;;;;;18.87;83.36;100188.03;5018743;28;20187;-73
2021/05/11 15:08:28;;;;;;;4.75;1.67;;;;;;;18.84;83.57;100183.41;5015056;28;20132;-72
2021/05/11 15:10:54;;;;;;;4.28;1.55;;;;;;;18.83;83.64;100179.16;5014862;28;20034;-72
2021/05/11 15:13:20;;;;;;;5.00;1.48;;;;;;;18.61;84.11;100184.28;5017838;28;20037;-76
2021/05/11 15:15:51;;;;;;;7.05;1.80;;;;;;;18.68;84.19;100175.94;5027069;28;20033;-75
2021/05/11 15:18:18;;;;;;;4.82;1.30;;;;;;;18.65;84.51;100174.06;5019334;28;20052;-71
2021/05/11 15:20:44;;;;;;;2.63;1.30;;;;;;;18.71;83.85;100171.59;5015218;28;20033;-72
2021/05/11 15:23:10;;;;;;;4.63;1.60;;;;;;;18.75;83.90;100170.34;5024447;28;20030;-73
2021/05/11 15:25:36;;;;;;;3.33;1.50;;;;;;;18.88;83.72;100182.16;5015574;28;20117;-72
2021/05/11 15:28:02;;;;;;;3.25;1.20;;;;;;;18.74;83.74;100184.38;5018266;28;20557;-73
2021/05/11 15:30:29;;;;;;;3.35;1.50;;;;;;;18.79;83.86;100189.38;5024725;28;20485;-72
2021/05/11 15:32:56;;;;;;;5.20;1.50;;;;;;;18.76;84.71;100182.00;5021575;28;20042;-73
2021/05/11 15:35:28;;;;;;;4.65;1.63;;;;;;;18.67;84.83;100168.94;5025249;28;20516;-74
2021/05/11 15:37:59;;;;;;;6.03;1.80;;;;;;;18.73;84.56;100167.28;5018715;28;20488;-72
2021/05/11 15:40:26;;;;;;;3.65;1.30;;;;;;;18.72;84.34;100170.41;5018930;28;20657;-74
2021/05/11 15:42:52;;;;;;;4.82;1.50;;;;;;;18.76;83.57;100182.78;5020177;28;20041;-72
2021/05/11 15:45:19;;;;;;;5.05;1.40;;;;;;;18.60;84.71;100168.34;5019418;28;20029;-72
2021/05/11 15:47:54;;;;;;;5.10;1.30;;;;;;;18.72;84.44;100171.19;5009837;28;20038;-72